createdAt,value
2022-10-18T00:03:22.773Z,4.95
2022-10-18T00:13:24.162Z,4.70
2022-10-18T00:23:25.908Z,6.90
2022-10-18T00:33:27.417Z,6.57
2022-10-18T00:43:28.789Z,6.10
2022-10-18T00:53:30.204Z,4.80
2022-10-18T01:03:31.796Z,8.90
2022-10-18T01:13:33.053Z,7.25
2022-10-18T01:23:57.063Z,8.77
2022-10-18T01:34:05.639Z,7.82
2022-10-18T01:54:09.466Z,5.35
2022-10-18T02:04:29.099Z,5.85
2022-10-18T02:14:30.533Z,7.82
2022-10-18T02:24:34.705Z,5.28
2022-10-18T02:34:45.002Z,5.90
2022-10-18T02:44:46.382Z,9.43
2022-10-18T02:54:47.747Z,6.40
2022-10-18T03:04:49.338Z,6.40
2022-10-18T03:14:50.746Z,6.68
2022-10-18T03:24:52.277Z,4.78
2022-10-18T03:34:53.668Z,6.60
2022-10-18T03:44:55.030Z,5.18
2022-10-18T03:54:56.567Z,6.65
2022-10-18T04:04:58.847Z,12.82
2022-10-18T04:15:00.233Z,8.93
2022-10-18T04:25:01.606Z,4.57
2022-10-18T04:35:03.834Z,4.15
2022-10-18T04:45:05.698Z,4.93
2022-10-18T04:55:07.345Z,6.13
2022-10-18T05:05:11.692Z,8.15
2022-10-18T05:15:15.411Z,7.13
2022-10-18T05:25:16.779Z,6.45
2022-10-18T05:35:18.188Z,12.35
2022-10-18T05:45:19.681Z,9.73
2022-10-18T05:55:21.228Z,12.68
2022-10-18T06:05:22.727Z,8.38
2022-10-18T06:15:24.117Z,11.30
2022-10-18T06:25:25.496Z,13.65
2022-10-18T06:35:26.886Z,12.43
2022-10-18T06:45:28.259Z,18.77
2022-10-18T06:55:32.521Z,18.60
2022-10-18T07:15:40.496Z,38.30
2022-10-18T07:25:41.888Z,29.08
2022-10-18T07:35:43.281Z,113.75
2022-10-18T07:46:00.978Z,108.68
2022-10-18T07:56:08.779Z,39.60
2022-10-18T08:06:12.292Z,61.78
2022-10-18T08:26:34.242Z,42.08
2022-10-18T08:36:35.660Z,38.22
2022-10-18T08:46:37.401Z,34.67
2022-10-18T08:56:43.285Z,47.53
2022-10-18T09:07:03.601Z,43.03
2022-10-18T09:17:16.059Z,51.47
2022-10-18T09:27:18.936Z,47.75
2022-10-18T09:37:20.831Z,38.50
2022-10-18T09:47:26.934Z,46.97
2022-10-18T09:57:32.664Z,46.10
2022-10-18T10:07:35.411Z,45.67
2022-10-18T10:17:37.213Z,31.65
2022-10-18T10:27:45.296Z,39.42
2022-10-18T10:37:46.672Z,35.43
2022-10-18T10:47:48.208Z,34.13
2022-10-18T10:57:50.999Z,40.60
2022-10-18T11:07:54.604Z,32.97
2022-10-18T11:18:20.177Z,32.22
2022-10-18T11:28:36.452Z,25.60
2022-10-18T11:38:57.317Z,26.80
2022-10-18T11:49:26.429Z,32.53
2022-10-18T11:59:34.260Z,31.13
2022-10-18T12:09:43.360Z,37.70
2022-10-18T12:19:45.640Z,25.02
2022-10-18T12:29:50.394Z,24.42
2022-10-18T12:40:12.089Z,34.42
2022-10-18T12:50:26.964Z,43.58
2022-10-18T13:00:31.232Z,37.90
2022-10-18T13:10:33.716Z,39.50
2022-10-18T13:20:40.803Z,54.40
2022-10-18T13:31:00.907Z,53.83
2022-10-18T13:41:11.387Z,55.55
2022-10-18T13:51:50.262Z,52.38
2022-10-18T14:02:42.925Z,31.85
2022-10-18T14:12:44.725Z,30.48
2022-10-18T14:23:06.567Z,34.83
2022-10-18T14:33:26.252Z,18.23
2022-10-18T14:43:27.608Z,19.98
2022-10-18T14:53:34.478Z,18.77
2022-10-18T15:03:35.872Z,11.20
2022-10-18T15:13:42.212Z,15.90
2022-10-18T15:23:43.657Z,8.18
2022-10-18T15:33:45.034Z,12.38
2022-10-18T15:43:46.479Z,14.70
2022-10-18T15:53:51.680Z,14.63
2022-10-18T16:14:00.555Z,11.25
2022-10-18T16:24:02.511Z,19.52
2022-10-18T16:34:04.396Z,16.10
2022-10-18T16:44:05.785Z,16.40
2022-10-18T16:54:07.171Z,16.05
2022-10-18T17:04:08.596Z,14.88
2022-10-18T17:14:09.967Z,16.23
2022-10-18T17:24:11.959Z,18.65
2022-10-18T17:34:16.459Z,15.80
2022-10-18T17:44:20.198Z,20.85
2022-10-18T17:54:21.707Z,20.95
2022-10-18T18:04:24.050Z,13.73
2022-10-18T18:14:25.500Z,11.60
2022-10-18T18:24:29.843Z,10.85
2022-10-18T18:34:31.215Z,19.48
2022-10-18T18:44:33.841Z,15.70
2022-10-18T18:54:35.258Z,20.70
2022-10-18T19:04:36.644Z,21.67
2022-10-18T19:14:38.192Z,27.38
2022-10-18T19:24:39.597Z,14.43
2022-10-18T19:34:41.419Z,21.27
2022-10-18T19:44:43.459Z,25.58
2022-10-18T19:54:45.040Z,15.77
2022-10-18T20:04:46.432Z,18.63
2022-10-18T20:14:47.809Z,26.33
2022-10-18T20:24:49.302Z,17.20
2022-10-18T20:34:50.688Z,13.90
2022-10-18T20:44:52.089Z,13.07
2022-10-18T20:54:53.568Z,12.70
2022-10-18T21:04:55.073Z,12.82
2022-10-18T21:14:56.461Z,18.77
2022-10-18T21:24:57.835Z,13.43
2022-10-18T21:34:59.984Z,12.13
2022-10-18T21:45:01.475Z,29.33
2022-10-18T21:55:06.957Z,18.27
2022-10-18T22:05:11.309Z,12.38
2022-10-18T22:15:13.631Z,12.23
2022-10-18T22:25:15.054Z,11.90
2022-10-18T22:35:16.545Z,13.30
2022-10-18T22:45:18.073Z,13.50
2022-10-18T22:55:19.577Z,13.27
2022-10-18T23:05:21.066Z,16.98
2022-10-18T23:15:22.511Z,7.63
2022-10-18T23:25:23.961Z,5.07
2022-10-18T23:35:25.453Z,7.35
2022-10-18T23:45:26.843Z,20.80
2022-10-18T23:55:28.211Z,13.38
